sensor_id;sensor_type;location;lat;lon;timestamp;temperature;humidity
6256;DHT22;3161;48.794;9.784;2022-10-18T00:01:13;14.20;99.90
6256;DHT22;3161;48.794;9.784;2022-10-18T00:03:41;14.10;99.90
6256;DHT22;3161;48.794;9.784;2022-10-18T00:06:10;14.10;99.90
6256;DHT22;3161;48.794;9.784;2022-10-18T00:08:38;14.10;99.90
6256;DHT22;3161;48.794;9.784;2022-10-18T00:11:06;14.00;99.90
6256;DHT22;3161;48.794;9.784;2022-10-18T00:13:34;14.00;99.90
6256;DHT22;3161;48.794;9.784;2022-10-18T00:16:04;14.00;99.90
6256;DHT22;3161;48.794;9.784;2022-10-18T00:18:32;14.00;99.90
6256;DHT22;3161;48.794;9.784;2022-10-18T00:21:11;14.00;99.90
6256;DHT22;3161;48.794;9.784;2022-10-18T00:23:39;14.00;99.90
6256;DHT22;3161;48.794;9.784;2022-10-18T00:26:10;14.00;99.90
6256;DHT22;3161;48.794;9.784;2022-10-18T00:28:39;13.90;99.90
6256;DHT22;3161;48.794;9.784;2022-10-18T00:31:19;13.90;99.90
6256;DHT22;3161;48.794;9.784;2022-10-18T00:33:53;13.90;99.90
6256;DHT22;3161;48.794;9.784;2022-10-18T00:36:17;13.90;99.90
6256;DHT22;3161;48.794;9.784;2022-10-18T00:38:45;13.90;99.90
6256;DHT22;3161;48.794;9.784;2022-10-18T00:41:16;13.90;99.90
6256;DHT22;3161;48.794;9.784;2022-10-18T00:43:58;13.90;99.90
6256;DHT22;3161;48.794;9.784;2022-10-18T00:46:31;13.80;99.90
6256;DHT22;3161;48.794;9.784;2022-10-18T00:49:01;13.80;99.90
6256;DHT22;3161;48.794;9.784;2022-10-18T00:51:32;13.80;99.90
6256;DHT22;3161;48.794;9.784;2022-10-18T00:54:00;13.80;99.90
6256;DHT22;3161;48.794;9.784;2022-10-18T00:56:28;13.80;99.90
6256;DHT22;3161;48.794;9.784;2022-10-18T00:58:56;13.80;99.90
6256;DHT22;3161;48.794;9.784;2022-10-18T01:01:24;13.80;99.90
6256;DHT22;3161;48.794;9.784;2022-10-18T01:03:53;13.80;99.90
6256;DHT22;3161;48.794;9.784;2022-10-18T01:06:22;13.70;99.90
6256;DHT22;3161;48.794;9.784;2022-10-18T01:08:57;13.70;99.90
6256;DHT22;3161;48.794;9.784;2022-10-18T01:14:33;13.70;99.90
6256;DHT22;3161;48.794;9.784;2022-10-18T01:17:00;13.70;99.90
6256;DHT22;3161;48.794;9.784;2022-10-18T01:22:22;13.70;99.90
6256;DHT22;3161;48.794;9.784;2022-10-18T01:30:31;13.60;99.90
6256;DHT22;3161;48.794;9.784;2022-10-18T01:32:58;13.60;99.90
6256;DHT22;3161;48.794;9.784;2022-10-18T01:35:34;13.60;99.90
6256;DHT22;3161;48.794;9.784;2022-10-18T01:38:05;13.60;99.90
6256;DHT22;3161;48.794;9.784;2022-10-18T01:40:34;13.60;99.90
6256;DHT22;3161;48.794;9.784;2022-10-18T01:43:04;13.60;99.90
6256;DHT22;3161;48.794;9.784;2022-10-18T01:45:33;13.60;99.90
6256;DHT22;3161;48.794;9.784;2022-10-18T01:48:01;13.60;99.90
6256;DHT22;3161;48.794;9.784;2022-10-18T01:50:30;13.60;99.90
6256;DHT22;3161;48.794;9.784;2022-10-18T01:52:58;13.60;99.90
6256;DHT22;3161;48.794;9.784;2022-10-18T01:55:32;13.20;99.90
6256;DHT22;3161;48.794;9.784;2022-10-18T01:58:18;13.70;99.90
6256;DHT22;3161;48.794;9.784;2022-10-18T02:00:42;13.60;99.90
6256;DHT22;3161;48.794;9.784;2022-10-18T02:03:21;13.60;99.90
6256;DHT22;3161;48.794;9.784;2022-10-18T02:06:03;13.70;99.90
6256;DHT22;3161;48.794;9.784;2022-10-18T02:08:34;13.70;99.90
6256;DHT22;3161;48.794;9.784;2022-10-18T02:11:09;13.70;99.90
6256;DHT22;3161;48.794;9.784;2022-10-18T02:13:40;13.70;99.90
6256;DHT22;3161;48.794;9.784;2022-10-18T02:16:10;13.80;99.90
6256;DHT22;3161;48.794;9.784;2022-10-18T02:18:41;13.80;99.90
6256;DHT22;3161;48.794;9.784;2022-10-18T02:21:11;13.80;99.90
6256;DHT22;3161;48.794;9.784;2022-10-18T02:23:44;13.80;99.90
6256;DHT22;3161;48.794;9.784;2022-10-18T02:26:17;13.80;99.90
6256;DHT22;3161;48.794;9.784;2022-10-18T02:28:43;13.90;99.90
6256;DHT22;3161;48.794;9.784;2022-10-18T02:31:19;13.90;99.90
6256;DHT22;3161;48.794;9.784;2022-10-18T02:33:56;13.90;99.90
6256;DHT22;3161;48.794;9.784;2022-10-18T02:36:26;13.90;99.90
6256;DHT22;3161;48.794;9.784;2022-10-18T02:38:59;13.90;99.90
6256;DHT22;3161;48.794;9.784;2022-10-18T02:41:32;13.90;99.90
6256;DHT22;3161;48.794;9.784;2022-10-18T02:43:59;14.00;99.90
6256;DHT22;3161;48.794;9.784;2022-10-18T02:46:33;14.00;99.90
6256;DHT22;3161;48.794;9.784;2022-10-18T02:48:57;14.00;99.90
6256;DHT22;3161;48.794;9.784;2022-10-18T02:51:36;14.00;99.90
6256;DHT22;3161;48.794;9.784;2022-10-18T02:54:00;14.00;99.90
6256;DHT22;3161;48.794;9.784;2022-10-18T02:56:29;14.00;99.90
6256;DHT22;3161;48.794;9.784;2022-10-18T03:01:40;14.00;99.90
6256;DHT22;3161;48.794;9.784;2022-10-18T03:07:14;14.10;99.90
6256;DHT22;3161;48.794;9.784;2022-10-18T03:09:45;14.00;99.90
6256;DHT22;3161;48.794;9.784;2022-10-18T03:12:24;14.10;99.90
6256;DHT22;3161;48.794;9.784;2022-10-18T03:15:06;14.10;99.90
6256;DHT22;3161;48.794;9.784;2022-10-18T03:20:36;14.10;99.90
6256;DHT22;3161;48.794;9.784;2022-10-18T03:26:33;14.10;99.90
6256;DHT22;3161;48.794;9.784;2022-10-18T03:34:57;14.10;99.90
6256;DHT22;3161;48.794;9.784;2022-10-18T03:37:26;14.10;99.90
6256;DHT22;3161;48.794;9.784;2022-10-18T03:39:53;14.10;99.90
6256;DHT22;3161;48.794;9.784;2022-10-18T03:42:33;14.10;99.90
6256;DHT22;3161;48.794;9.784;2022-10-18T03:45:10;14.10;99.90
6256;DHT22;3161;48.794;9.784;2022-10-18T03:47:36;14.10;99.90
6256;DHT22;3161;48.794;9.784;2022-10-18T03:50:04;14.20;99.90
6256;DHT22;3161;48.794;9.784;2022-10-18T03:52:35;14.20;99.90
6256;DHT22;3161;48.794;9.784;2022-10-18T03:55:03;14.20;99.90
6256;DHT22;3161;48.794;9.784;2022-10-18T03:57:30;14.20;99.90
6256;DHT22;3161;48.794;9.784;2022-10-18T03:59:58;14.20;99.90
6256;DHT22;3161;48.794;9.784;2022-10-18T04:02:25;14.20;99.90
6256;DHT22;3161;48.794;9.784;2022-10-18T04:04:53;14.20;99.90
6256;DHT22;3161;48.794;9.784;2022-10-18T04:07:21;14.20;99.90
6256;DHT22;3161;48.794;9.784;2022-10-18T04:09:48;14.30;99.90
6256;DHT22;3161;48.794;9.784;2022-10-18T04:12:16;14.20;99.90
6256;DHT22;3161;48.794;9.784;2022-10-18T04:14:43;14.30;99.90
6256;DHT22;3161;48.794;9.784;2022-10-18T04:17:11;14.30;99.90
6256;DHT22;3161;48.794;9.784;2022-10-18T04:19:38;14.30;99.90
6256;DHT22;3161;48.794;9.784;2022-10-18T04:22:08;14.30;99.90
6256;DHT22;3161;48.794;9.784;2022-10-18T04:24:38;14.30;99.90
6256;DHT22;3161;48.794;9.784;2022-10-18T04:27:06;14.30;99.90
6256;DHT22;3161;48.794;9.784;2022-10-18T04:29:33;14.30;99.90
6256;DHT22;3161;48.794;9.784;2022-10-18T04:32:01;14.30;99.90
6256;DHT22;3161;48.794;9.784;2022-10-18T04:34:28;14.30;99.90
6256;DHT22;3161;48.794;9.784;2022-10-18T04:36:56;14.30;99.90
6256;DHT22;3161;48.794;9.784;2022-10-18T04:39:23;14.30;99.90
6256;DHT22;3161;48.794;9.784;2022-10-18T04:41:51;14.30;99.90
6256;DHT22;3161;48.794;9.784;2022-10-18T04:44:18;14.30;99.90
6256;DHT22;3161;48.794;9.784;2022-10-18T04:46:46;14.30;99.90
6256;DHT22;3161;48.794;9.784;2022-10-18T04:49:13;14.40;99.90
6256;DHT22;3161;48.794;9.784;2022-10-18T04:51:41;14.30;99.90
6256;DHT22;3161;48.794;9.784;2022-10-18T04:54:08;14.40;99.90
6256;DHT22;3161;48.794;9.784;2022-10-18T04:56:36;14.40;99.90
6256;DHT22;3161;48.794;9.784;2022-10-18T04:59:04;14.40;99.90
6256;DHT22;3161;48.794;9.784;2022-10-18T05:01:32;14.40;99.90
6256;DHT22;3161;48.794;9.784;2022-10-18T05:03:59;14.40;99.90
6256;DHT22;3161;48.794;9.784;2022-10-18T05:06:26;14.40;99.90
6256;DHT22;3161;48.794;9.784;2022-10-18T05:08:54;14.40;99.90
6256;DHT22;3161;48.794;9.784;2022-10-18T05:11:22;14.40;99.90
6256;DHT22;3161;48.794;9.784;2022-10-18T05:13:49;14.40;99.90
6256;DHT22;3161;48.794;9.784;2022-10-18T05:16:17;14.40;99.90
6256;DHT22;3161;48.794;9.784;2022-10-18T05:18:44;14.40;99.90
6256;DHT22;3161;48.794;9.784;2022-10-18T05:21:12;14.40;99.90
6256;DHT22;3161;48.794;9.784;2022-10-18T05:23:39;14.40;99.90
6256;DHT22;3161;48.794;9.784;2022-10-18T05:26:07;14.40;99.90
6256;DHT22;3161;48.794;9.784;2022-10-18T05:28:35;14.40;99.90
6256;DHT22;3161;48.794;9.784;2022-10-18T05:31:05;14.50;99.90
6256;DHT22;3161;48.794;9.784;2022-10-18T05:33:33;14.40;99.90
6256;DHT22;3161;48.794;9.784;2022-10-18T05:36:01;14.50;99.90
6256;DHT22;3161;48.794;9.784;2022-10-18T05:38:28;14.40;99.90
6256;DHT22;3161;48.794;9.784;2022-10-18T05:40:57;14.50;99.90
6256;DHT22;3161;48.794;9.784;2022-10-18T05:43:28;14.40;99.90
6256;DHT22;3161;48.794;9.784;2022-10-18T05:45:56;14.40;99.90
6256;DHT22;3161;48.794;9.784;2022-10-18T05:48:23;14.40;99.90
6256;DHT22;3161;48.794;9.784;2022-10-18T05:50:52;14.40;99.90
6256;DHT22;3161;48.794;9.784;2022-10-18T05:53:19;14.40;99.90
6256;DHT22;3161;48.794;9.784;2022-10-18T05:55:47;14.40;99.90
6256;DHT22;3161;48.794;9.784;2022-10-18T05:58:14;14.40;99.90
6256;DHT22;3161;48.794;9.784;2022-10-18T06:00:42;14.30;99.90
6256;DHT22;3161;48.794;9.784;2022-10-18T06:03:09;14.30;99.90
6256;DHT22;3161;48.794;9.784;2022-10-18T06:05:37;14.30;99.90
6256;DHT22;3161;48.794;9.784;2022-10-18T06:08:04;14.30;99.90
6256;DHT22;3161;48.794;9.784;2022-10-18T06:10:32;14.30;99.90
6256;DHT22;3161;48.794;9.784;2022-10-18T06:12:59;14.30;99.90
6256;DHT22;3161;48.794;9.784;2022-10-18T06:15:27;14.30;99.90
6256;DHT22;3161;48.794;9.784;2022-10-18T06:17:54;14.30;99.90
6256;DHT22;3161;48.794;9.784;2022-10-18T06:20:22;14.30;99.90
6256;DHT22;3161;48.794;9.784;2022-10-18T06:22:51;14.30;99.90
6256;DHT22;3161;48.794;9.784;2022-10-18T06:25:19;14.30;99.90
6256;DHT22;3161;48.794;9.784;2022-10-18T06:27:46;14.30;99.90
6256;DHT22;3161;48.794;9.784;2022-10-18T06:30:14;14.30;99.90
6256;DHT22;3161;48.794;9.784;2022-10-18T06:32:41;14.30;99.90
6256;DHT22;3161;48.794;9.784;2022-10-18T06:35:09;14.40;99.90
6256;DHT22;3161;48.794;9.784;2022-10-18T06:37:36;14.40;99.90
6256;DHT22;3161;48.794;9.784;2022-10-18T06:40:05;14.40;99.90
6256;DHT22;3161;48.794;9.784;2022-10-18T06:42:33;14.40;99.90
6256;DHT22;3161;48.794;9.784;2022-10-18T06:45:00;14.40;99.90
6256;DHT22;3161;48.794;9.784;2022-10-18T06:47:28;14.40;99.90
6256;DHT22;3161;48.794;9.784;2022-10-18T06:49:56;14.40;99.90
6256;DHT22;3161;48.794;9.784;2022-10-18T06:52:25;14.40;99.90
6256;DHT22;3161;48.794;9.784;2022-10-18T06:54:52;14.40;99.90
6256;DHT22;3161;48.794;9.784;2022-10-18T06:57:20;14.40;99.90
6256;DHT22;3161;48.794;9.784;2022-10-18T06:59:48;14.50;99.90
6256;DHT22;3161;48.794;9.784;2022-10-18T07:02:16;14.50;99.90
6256;DHT22;3161;48.794;9.784;2022-10-18T07:04:44;14.50;99.90
6256;DHT22;3161;48.794;9.784;2022-10-18T07:07:11;14.60;99.90
6256;DHT22;3161;48.794;9.784;2022-10-18T07:09:39;14.60;99.90
6256;DHT22;3161;48.794;9.784;2022-10-18T07:12:07;14.70;99.90
6256;DHT22;3161;48.794;9.784;2022-10-18T07:14:36;14.80;99.90
6256;DHT22;3161;48.794;9.784;2022-10-18T07:17:03;14.90;99.90
6256;DHT22;3161;48.794;9.784;2022-10-18T07:19:31;15.00;99.90
6256;DHT22;3161;48.794;9.784;2022-10-18T07:21:58;15.10;99.90
6256;DHT22;3161;48.794;9.784;2022-10-18T07:24:26;15.20;99.90
6256;DHT22;3161;48.794;9.784;2022-10-18T07:26:53;15.30;99.90
6256;DHT22;3161;48.794;9.784;2022-10-18T07:29:21;15.40;99.90
6256;DHT22;3161;48.794;9.784;2022-10-18T07:31:48;15.40;99.90
6256;DHT22;3161;48.794;9.784;2022-10-18T07:34:16;15.50;99.90
6256;DHT22;3161;48.794;9.784;2022-10-18T07:36:43;15.60;99.90
6256;DHT22;3161;48.794;9.784;2022-10-18T07:39:11;15.70;99.90
6256;DHT22;3161;48.794;9.784;2022-10-18T07:41:38;15.80;99.90
6256;DHT22;3161;48.794;9.784;2022-10-18T07:44:06;15.90;99.90
6256;DHT22;3161;48.794;9.784;2022-10-18T07:46:33;16.10;99.90
6256;DHT22;3161;48.794;9.784;2022-10-18T07:49:01;16.30;99.90
6256;DHT22;3161;48.794;9.784;2022-10-18T07:51:28;16.40;99.90
6256;DHT22;3161;48.794;9.784;2022-10-18T07:53:58;16.60;99.90
6256;DHT22;3161;48.794;9.784;2022-10-18T07:56:25;16.80;99.90
6256;DHT22;3161;48.794;9.784;2022-10-18T07:58:54;17.00;99.90
6256;DHT22;3161;48.794;9.784;2022-10-18T08:01:23;17.20;99.90
6256;DHT22;3161;48.794;9.784;2022-10-18T08:03:52;17.50;99.90
6256;DHT22;3161;48.794;9.784;2022-10-18T08:06:21;17.70;99.90
6256;DHT22;3161;48.794;9.784;2022-10-18T08:08:49;18.10;99.90
6256;DHT22;3161;48.794;9.784;2022-10-18T08:11:19;18.70;99.90
6256;DHT22;3161;48.794;9.784;2022-10-18T08:13:47;19.30;99.90
6256;DHT22;3161;48.794;9.784;2022-10-18T08:16:17;20.20;99.90
6256;DHT22;3161;48.794;9.784;2022-10-18T08:18:45;20.90;99.90
6256;DHT22;3161;48.794;9.784;2022-10-18T08:21:14;21.60;99.90
6256;DHT22;3161;48.794;9.784;2022-10-18T08:23:42;22.10;99.90
6256;DHT22;3161;48.794;9.784;2022-10-18T08:26:13;22.40;99.90
6256;DHT22;3161;48.794;9.784;2022-10-18T08:28:41;22.60;99.90
6256;DHT22;3161;48.794;9.784;2022-10-18T08:31:14;22.60;99.90
6256;DHT22;3161;48.794;9.784;2022-10-18T08:33:46;22.70;99.90
6256;DHT22;3161;48.794;9.784;2022-10-18T08:36:15;22.50;99.90
6256;DHT22;3161;48.794;9.784;2022-10-18T08:38:43;22.50;99.90
6256;DHT22;3161;48.794;9.784;2022-10-18T08:46:52;22.00;99.90
6256;DHT22;3161;48.794;9.784;2022-10-18T08:49:29;21.90;99.90
6256;DHT22;3161;48.794;9.784;2022-10-18T08:51:55;21.80;99.90
6256;DHT22;3161;48.794;9.784;2022-10-18T08:57:01;21.80;99.90
6256;DHT22;3161;48.794;9.784;2022-10-18T08:59:38;22.00;99.90
6256;DHT22;3161;48.794;9.784;2022-10-18T09:14:10;21.80;99.90
6256;DHT22;3161;48.794;9.784;2022-10-18T09:16:46;21.80;99.90
6256;DHT22;3161;48.794;9.784;2022-10-18T09:22:13;21.90;99.90
6256;DHT22;3161;48.794;9.784;2022-10-18T09:24:58;21.90;99.90
6256;DHT22;3161;48.794;9.784;2022-10-18T09:27:30;22.00;99.90
6256;DHT22;3161;48.794;9.784;2022-10-18T09:30:04;22.30;99.90
6256;DHT22;3161;48.794;9.784;2022-10-18T09:33:22;22.10;99.90
6256;DHT22;3161;48.794;9.784;2022-10-18T09:35:26;22.10;99.90
6256;DHT22;3161;48.794;9.784;2022-10-18T09:37:58;22.20;99.90
6256;DHT22;3161;48.794;9.784;2022-10-18T09:40:29;22.30;99.90
6256;DHT22;3161;48.794;9.784;2022-10-18T09:43:13;22.40;99.90
6256;DHT22;3161;48.794;9.784;2022-10-18T09:45:42;22.40;99.90
6256;DHT22;3161;48.794;9.784;2022-10-18T09:48:28;22.60;99.90
6256;DHT22;3161;48.794;9.784;2022-10-18T09:51:08;22.70;99.90
6256;DHT22;3161;48.794;9.784;2022-10-18T09:53:47;22.60;99.90
6256;DHT22;3161;48.794;9.784;2022-10-18T09:56:16;22.60;99.90
6256;DHT22;3161;48.794;9.784;2022-10-18T09:58:47;22.60;99.90
6256;DHT22;3161;48.794;9.784;2022-10-18T10:01:26;22.50;99.90
6256;DHT22;3161;48.794;9.784;2022-10-18T10:03:54;22.60;99.90
6256;DHT22;3161;48.794;9.784;2022-10-18T10:06:25;22.70;99.90
6256;DHT22;3161;48.794;9.784;2022-10-18T10:09:07;22.60;99.90
6256;DHT22;3161;48.794;9.784;2022-10-18T10:11:43;22.60;99.90
6256;DHT22;3161;48.794;9.784;2022-10-18T10:14:12;22.50;99.90
6256;DHT22;3161;48.794;9.784;2022-10-18T10:16:52;22.50;99.90
6256;DHT22;3161;48.794;9.784;2022-10-18T10:19:34;22.50;99.90
6256;DHT22;3161;48.794;9.784;2022-10-18T10:22:10;22.50;99.90
6256;DHT22;3161;48.794;9.784;2022-10-18T10:24:49;22.30;99.90
6256;DHT22;3161;48.794;9.784;2022-10-18T10:27:19;22.30;99.90
6256;DHT22;3161;48.794;9.784;2022-10-18T10:29:50;22.30;99.90
6256;DHT22;3161;48.794;9.784;2022-10-18T10:32:21;22.20;99.90
6256;DHT22;3161;48.794;9.784;2022-10-18T10:34:49;22.30;99.90
6256;DHT22;3161;48.794;9.784;2022-10-18T10:37:26;22.30;99.90
6256;DHT22;3161;48.794;9.784;2022-10-18T10:40:12;22.40;99.90
6256;DHT22;3161;48.794;9.784;2022-10-18T10:45:36;22.70;99.90
6256;DHT22;3161;48.794;9.784;2022-10-18T10:48:07;22.80;99.90
6256;DHT22;3161;48.794;9.784;2022-10-18T10:50:48;22.90;99.90
6256;DHT22;3161;48.794;9.784;2022-10-18T10:53:42;22.90;99.90
6256;DHT22;3161;48.794;9.784;2022-10-18T10:56:22;23.00;99.90
6256;DHT22;3161;48.794;9.784;2022-10-18T10:58:51;23.00;99.90
6256;DHT22;3161;48.794;9.784;2022-10-18T11:01:26;23.10;99.90
6256;DHT22;3161;48.794;9.784;2022-10-18T11:03:56;23.20;99.90
6256;DHT22;3161;48.794;9.784;2022-10-18T11:09:15;23.30;99.90
6256;DHT22;3161;48.794;9.784;2022-10-18T11:11:42;23.30;99.90
6256;DHT22;3161;48.794;9.784;2022-10-18T11:14:24;23.30;99.90
6256;DHT22;3161;48.794;9.784;2022-10-18T11:16:55;23.30;99.90
6256;DHT22;3161;48.794;9.784;2022-10-18T11:19:36;23.30;99.90
6256;DHT22;3161;48.794;9.784;2022-10-18T11:22:04;23.40;99.90
6256;DHT22;3161;48.794;9.784;2022-10-18T11:24:34;23.50;99.90
6256;DHT22;3161;48.794;9.784;2022-10-18T11:27:24;23.60;99.90
6256;DHT22;3161;48.794;9.784;2022-10-18T11:33:05;23.90;99.90
6256;DHT22;3161;48.794;9.784;2022-10-18T11:35:35;24.00;99.90
6256;DHT22;3161;48.794;9.784;2022-10-18T11:41:14;24.00;99.90
6256;DHT22;3161;48.794;9.784;2022-10-18T11:43:47;24.00;99.90
6256;DHT22;3161;48.794;9.784;2022-10-18T12:05:21;24.00;99.90
6256;DHT22;3161;48.794;9.784;2022-10-18T12:10:31;23.80;99.90
6256;DHT22;3161;48.794;9.784;2022-10-18T12:13:02;23.70;99.90
6256;DHT22;3161;48.794;9.784;2022-10-18T12:15:33;23.60;99.90
6256;DHT22;3161;48.794;9.784;2022-10-18T12:18:22;23.60;99.90
6256;DHT22;3161;48.794;9.784;2022-10-18T12:20:39;23.60;99.90
6256;DHT22;3161;48.794;9.784;2022-10-18T12:23:16;23.60;99.90
6256;DHT22;3161;48.794;9.784;2022-10-18T12:25:51;23.50;99.90
6256;DHT22;3161;48.794;9.784;2022-10-18T12:28:46;23.40;99.90
6256;DHT22;3161;48.794;9.784;2022-10-18T12:31:25;23.40;99.90
6256;DHT22;3161;48.794;9.784;2022-10-18T12:34:05;23.40;99.90
6256;DHT22;3161;48.794;9.784;2022-10-18T12:39:31;23.50;99.90
6256;DHT22;3161;48.794;9.784;2022-10-18T12:41:59;23.70;99.90
6256;DHT22;3161;48.794;9.784;2022-10-18T12:46:59;23.80;99.90
6256;DHT22;3161;48.794;9.784;2022-10-18T12:49:30;23.90;99.90
6256;DHT22;3161;48.794;9.784;2022-10-18T12:52:21;24.00;99.90
6256;DHT22;3161;48.794;9.784;2022-10-18T13:03:27;24.50;99.90
6256;DHT22;3161;48.794;9.784;2022-10-18T13:16:37;25.30;99.90
6256;DHT22;3161;48.794;9.784;2022-10-18T13:24:57;25.70;99.90
6256;DHT22;3161;48.794;9.784;2022-10-18T13:30:26;26.40;99.90
6256;DHT22;3161;48.794;9.784;2022-10-18T13:32:55;26.40;99.90
6256;DHT22;3161;48.794;9.784;2022-10-18T13:35:50;26.10;99.90
6256;DHT22;3161;48.794;9.784;2022-10-18T13:41:18;25.60;99.90
6256;DHT22;3161;48.794;9.784;2022-10-18T14:01:00;24.60;99.90
6256;DHT22;3161;48.794;9.784;2022-10-18T14:14:42;23.80;99.90
6256;DHT22;3161;48.794;9.784;2022-10-18T14:25:35;32.10;98.10
6256;DHT22;3161;48.794;9.784;2022-10-18T14:28:16;34.40;90.00
6256;DHT22;3161;48.794;9.784;2022-10-18T14:38:50;38.30;56.00
6256;DHT22;3161;48.794;9.784;2022-10-18T14:41:24;36.90;56.30
6256;DHT22;3161;48.794;9.784;2022-10-18T14:44:08;35.00;59.10
6256;DHT22;3161;48.794;9.784;2022-10-18T14:46:24;33.10;63.50
6256;DHT22;3161;48.794;9.784;2022-10-18T14:48:58;31.90;67.20
6256;DHT22;3161;48.794;9.784;2022-10-18T14:51:28;31.60;69.70
6256;DHT22;3161;48.794;9.784;2022-10-18T14:53:56;31.20;69.50
6256;DHT22;3161;48.794;9.784;2022-10-18T14:56:26;30.30;73.30
6256;DHT22;3161;48.794;9.784;2022-10-18T14:58:55;29.30;76.50
6256;DHT22;3161;48.794;9.784;2022-10-18T15:01:29;28.30;79.80
6256;DHT22;3161;48.794;9.784;2022-10-18T15:04:05;27.40;84.00
6256;DHT22;3161;48.794;9.784;2022-10-18T15:06:33;26.60;86.80
6256;DHT22;3161;48.794;9.784;2022-10-18T15:09:02;25.90;90.20
6256;DHT22;3161;48.794;9.784;2022-10-18T15:11:31;25.30;91.40
6256;DHT22;3161;48.794;9.784;2022-10-18T15:14:02;24.80;92.50
6256;DHT22;3161;48.794;9.784;2022-10-18T15:16:32;24.30;94.10
6256;DHT22;3161;48.794;9.784;2022-10-18T15:21:54;23.60;96.20
6256;DHT22;3161;48.794;9.784;2022-10-18T15:24:33;23.30;98.00
6256;DHT22;3161;48.794;9.784;2022-10-18T15:29:48;22.90;99.90
6256;DHT22;3161;48.794;9.784;2022-10-18T15:32:24;22.60;99.90
6256;DHT22;3161;48.794;9.784;2022-10-18T15:34:49;22.50;99.90
6256;DHT22;3161;48.794;9.784;2022-10-18T15:37:30;22.30;99.90
6256;DHT22;3161;48.794;9.784;2022-10-18T15:42:54;22.10;99.90
6256;DHT22;3161;48.794;9.784;2022-10-18T15:45:31;22.00;99.90
6256;DHT22;3161;48.794;9.784;2022-10-18T15:50:35;21.70;99.90
6256;DHT22;3161;48.794;9.784;2022-10-18T15:53:49;21.60;99.90
6256;DHT22;3161;48.794;9.784;2022-10-18T15:56:08;21.50;99.90
6256;DHT22;3161;48.794;9.784;2022-10-18T15:58:46;21.40;99.90
6256;DHT22;3161;48.794;9.784;2022-10-18T16:01:17;21.30;99.90
6256;DHT22;3161;48.794;9.784;2022-10-18T16:03:45;21.20;99.90
6256;DHT22;3161;48.794;9.784;2022-10-18T16:06:15;21.20;99.90
6256;DHT22;3161;48.794;9.784;2022-10-18T16:08:48;21.10;99.90
6256;DHT22;3161;48.794;9.784;2022-10-18T16:11:19;21.10;99.90
6256;DHT22;3161;48.794;9.784;2022-10-18T16:13:47;21.00;99.90
6256;DHT22;3161;48.794;9.784;2022-10-18T16:16:22;21.00;99.90
6256;DHT22;3161;48.794;9.784;2022-10-18T16:18:45;20.90;99.90
6256;DHT22;3161;48.794;9.784;2022-10-18T16:21:42;20.80;99.90
6256;DHT22;3161;48.794;9.784;2022-10-18T16:23:50;20.80;99.90
6256;DHT22;3161;48.794;9.784;2022-10-18T16:26:18;20.70;99.90
6256;DHT22;3161;48.794;9.784;2022-10-18T16:28:47;20.60;99.90
6256;DHT22;3161;48.794;9.784;2022-10-18T16:31:20;20.50;99.90
6256;DHT22;3161;48.794;9.784;2022-10-18T16:33:49;20.50;99.90
6256;DHT22;3161;48.794;9.784;2022-10-18T16:36:19;20.40;99.90
6256;DHT22;3161;48.794;9.784;2022-10-18T16:38:47;20.30;99.90
6256;DHT22;3161;48.794;9.784;2022-10-18T16:41:15;20.30;99.90
6256;DHT22;3161;48.794;9.784;2022-10-18T16:43:45;20.30;99.90
6256;DHT22;3161;48.794;9.784;2022-10-18T16:46:21;20.30;99.90
6256;DHT22;3161;48.794;9.784;2022-10-18T16:48:47;20.30;99.90
6256;DHT22;3161;48.794;9.784;2022-10-18T16:51:15;20.20;99.90
6256;DHT22;3161;48.794;9.784;2022-10-18T16:53:43;20.20;99.90
6256;DHT22;3161;48.794;9.784;2022-10-18T16:56:16;20.10;99.90
6256;DHT22;3161;48.794;9.784;2022-10-18T16:58:44;20.10;99.90
6256;DHT22;3161;48.794;9.784;2022-10-18T17:01:14;20.10;99.90
6256;DHT22;3161;48.794;9.784;2022-10-18T17:03:42;20.10;99.90
6256;DHT22;3161;48.794;9.784;2022-10-18T17:06:23;20.10;99.90
6256;DHT22;3161;48.794;9.784;2022-10-18T17:08:47;20.10;99.90
6256;DHT22;3161;48.794;9.784;2022-10-18T17:11:15;20.10;99.90
6256;DHT22;3161;48.794;9.784;2022-10-18T17:13:44;20.00;99.90
6256;DHT22;3161;48.794;9.784;2022-10-18T17:16:29;20.00;99.90
6256;DHT22;3161;48.794;9.784;2022-10-18T17:18:59;19.90;99.90
6256;DHT22;3161;48.794;9.784;2022-10-18T17:21:28;19.90;99.90
6256;DHT22;3161;48.794;9.784;2022-10-18T17:23:56;19.80;99.90
6256;DHT22;3161;48.794;9.784;2022-10-18T17:26:31;19.80;99.90
6256;DHT22;3161;48.794;9.784;2022-10-18T17:29:02;19.80;99.90
6256;DHT22;3161;48.794;9.784;2022-10-18T17:31:31;19.80;99.90
6256;DHT22;3161;48.794;9.784;2022-10-18T17:33:59;19.80;99.90
6256;DHT22;3161;48.794;9.784;2022-10-18T17:36:27;19.80;99.90
6256;DHT22;3161;48.794;9.784;2022-10-18T17:38:55;19.80;99.90
6256;DHT22;3161;48.794;9.784;2022-10-18T17:41:23;19.80;99.90
6256;DHT22;3161;48.794;9.784;2022-10-18T17:43:51;19.80;99.90
6256;DHT22;3161;48.794;9.784;2022-10-18T17:46:19;19.70;99.90
6256;DHT22;3161;48.794;9.784;2022-10-18T17:48:46;19.70;99.90
6256;DHT22;3161;48.794;9.784;2022-10-18T17:51:16;19.70;99.90
6256;DHT22;3161;48.794;9.784;2022-10-18T17:53:44;19.70;99.90
6256;DHT22;3161;48.794;9.784;2022-10-18T17:56:13;19.70;99.90
6256;DHT22;3161;48.794;9.784;2022-10-18T17:58:40;19.60;99.90
6256;DHT22;3161;48.794;9.784;2022-10-18T18:01:15;19.60;99.90
6256;DHT22;3161;48.794;9.784;2022-10-18T18:03:43;19.60;99.90
6256;DHT22;3161;48.794;9.784;2022-10-18T18:08:41;19.50;99.90
6256;DHT22;3161;48.794;9.784;2022-10-18T18:11:08;19.40;99.90
6256;DHT22;3161;48.794;9.784;2022-10-18T18:13:36;19.40;99.90
6256;DHT22;3161;48.794;9.784;2022-10-18T18:16:12;19.40;99.90
6256;DHT22;3161;48.794;9.784;2022-10-18T18:18:40;19.30;99.90
6256;DHT22;3161;48.794;9.784;2022-10-18T18:21:07;19.30;99.90
6256;DHT22;3161;48.794;9.784;2022-10-18T18:23:35;19.20;99.90
6256;DHT22;3161;48.794;9.784;2022-10-18T18:26:02;19.20;99.90
6256;DHT22;3161;48.794;9.784;2022-10-18T18:28:30;19.20;99.90
6256;DHT22;3161;48.794;9.784;2022-10-18T18:30:58;19.20;99.90
6256;DHT22;3161;48.794;9.784;2022-10-18T18:33:25;19.10;99.90
6256;DHT22;3161;48.794;9.784;2022-10-18T18:35:54;19.10;99.90
6256;DHT22;3161;48.794;9.784;2022-10-18T18:38:23;19.10;99.90
6256;DHT22;3161;48.794;9.784;2022-10-18T18:43:40;19.00;99.90
6256;DHT22;3161;48.794;9.784;2022-10-18T18:46:09;19.00;99.90
6256;DHT22;3161;48.794;9.784;2022-10-18T18:48:38;19.00;99.90
6256;DHT22;3161;48.794;9.784;2022-10-18T18:51:10;18.90;99.90
6256;DHT22;3161;48.794;9.784;2022-10-18T18:53:39;18.90;99.90
6256;DHT22;3161;48.794;9.784;2022-10-18T18:56:09;18.90;99.90
6256;DHT22;3161;48.794;9.784;2022-10-18T18:58:38;18.90;99.90
6256;DHT22;3161;48.794;9.784;2022-10-18T19:01:16;18.90;99.90
6256;DHT22;3161;48.794;9.784;2022-10-18T19:03:46;18.80;99.90
6256;DHT22;3161;48.794;9.784;2022-10-18T19:06:17;18.80;99.90
6256;DHT22;3161;48.794;9.784;2022-10-18T19:08:45;18.70;99.90
6256;DHT22;3161;48.794;9.784;2022-10-18T19:11:16;18.70;99.90
6256;DHT22;3161;48.794;9.784;2022-10-18T19:13:44;18.70;99.90
6256;DHT22;3161;48.794;9.784;2022-10-18T19:19:14;18.70;99.90
6256;DHT22;3161;48.794;9.784;2022-10-18T19:21:47;18.70;99.90
6256;DHT22;3161;48.794;9.784;2022-10-18T19:24:17;18.60;99.90
6256;DHT22;3161;48.794;9.784;2022-10-18T19:26:53;18.60;99.90
6256;DHT22;3161;48.794;9.784;2022-10-18T19:29:25;18.60;99.90
6256;DHT22;3161;48.794;9.784;2022-10-18T19:31:55;18.60;99.90